Time;durP1;ratioP1;P1;durP2;ratioP2;P2;SDS_P1;SDS_P2;PMS_P1;PMS_P2;Temp;Humidity;BMP_temperature;BMP_pressure;BME280_temperature;BME280_humidity;BME280_pressure;Samples;Min_cycle;Max_cycle;Signal;HPM_P1;HPM_P2
2021/01/24 00:01:15;;;;;;;13.35;12.25;;;;;;;1.08;75.52;98067.47;10144636;29;20534;-68
2021/01/24 00:06:16;;;;;;;12.18;11.20;;;;;;;1.16;75.19;98070.72;10142242;29;20040;-69
2021/01/24 00:11:18;;;;;;;12.82;11.85;;;;;;;1.25;74.68;98058.41;10142820;29;20595;-69
2021/01/24 00:16:19;;;;;;;13.63;12.52;;;;;;;0.73;75.86;98057.09;10143067;29;20076;-68
2021/01/24 00:21:20;;;;;;;12.93;11.70;;;;;;;1.14;75.50;98052.63;10142686;29;20060;-68
2021/01/24 00:26:21;;;;;;;13.70;12.70;;;;;;;0.84;75.87;98051.69;10142286;29;20076;-69
2021/01/24 00:31:23;;;;;;;14.45;13.32;;;;;;;0.88;76.23;98036.91;10142504;29;20104;-70
2021/01/24 00:36:24;;;;;;;14.95;13.85;;;;;;;0.82;76.18;98034.50;10143534;29;20051;-69
2021/01/24 00:41:25;;;;;;;15.55;14.35;;;;;;;0.91;76.40;98036.84;10142858;29;20088;-69
2021/01/24 00:46:26;;;;;;;14.77;13.57;;;;;;;1.22;75.06;98031.75;10141347;29;20124;-69
2021/01/24 00:51:28;;;;;;;14.93;13.77;;;;;;;1.02;75.75;98037.44;10142910;29;20491;-68
2021/01/24 00:56:29;;;;;;;14.23;13.13;;;;;;;1.04;75.14;98030.47;10143046;29;20044;-68
2021/01/24 01:01:31;;;;;;;14.25;13.15;;;;;;;1.15;75.25;98025.91;10141967;29;20048;-68
2021/01/24 01:06:34;;;;;;;14.55;13.45;;;;;;;0.88;75.67;98022.25;10142231;29;20044;-69
2021/01/24 01:11:35;;;;;;;14.55;13.45;;;;;;;0.84;76.15;98020.66;10142468;29;20086;-68
2021/01/24 01:16:37;;;;;;;14.32;13.23;;;;;;;0.95;75.58;98005.69;10141433;29;20040;-68
2021/01/24 01:21:38;;;;;;;13.65;12.55;;;;;;;1.06;75.33;98008.00;10140206;29;20121;-68
2021/01/24 01:26:39;;;;;;;14.10;12.93;;;;;;;0.74;75.83;98008.81;10124014;29;20404;-68
2021/01/24 01:31:41;;;;;;;15.73;14.43;;;;;;;0.96;76.00;98012.56;10141520;29;20505;-69
2021/01/24 01:36:42;;;;;;;13.63;12.52;;;;;;;1.03;75.29;98015.00;10140936;29;20064;-68
2021/01/24 01:41:43;;;;;;;14.07;12.88;;;;;;;0.62;75.93;98004.81;10140571;29;20036;-69
2021/01/24 01:46:45;;;;;;;13.32;12.23;;;;;;;0.96;75.62;98014.31;10141522;29;20468;-69
2021/01/24 01:51:47;;;;;;;14.52;13.38;;;;;;;1.03;74.92;98013.28;10139274;29;20057;-68
2021/01/24 01:56:49;;;;;;;12.93;11.93;;;;;;;0.84;75.30;98019.78;10139538;29;20083;-69
2021/01/24 02:02:05;;;;;;;15.02;13.82;;;;;;;0.89;75.06;98017.94;10140534;29;20446;-69
2021/01/24 02:07:44;;;;;;;14.75;13.55;;;;;;;0.98;74.67;98015.13;10139960;29;20045;-68
2021/01/24 02:13:00;;;;;;;14.85;13.68;;;;;;;0.61;75.38;98010.00;10139767;29;20124;-71
2021/01/24 02:18:05;;;;;;;16.35;15.05;;;;;;;0.62;75.66;98016.88;10140039;29;20448;-69
2021/01/24 02:23:12;;;;;;;15.75;14.35;;;;;;;0.36;76.08;98013.19;10140027;29;20100;-69
2021/01/24 02:28:25;;;;;;;15.90;14.57;;;;;;;0.35;76.48;98002.88;10139797;29;20071;-69
2021/01/24 02:33:30;;;;;;;14.55;13.45;;;;;;;0.82;75.73;97996.56;10138801;29;20051;-68
2021/01/24 02:38:32;;;;;;;14.52;13.23;;;;;;;0.57;75.98;97991.13;10139091;29;20051;-68
2021/01/24 02:43:34;;;;;;;14.90;13.70;;;;;;;0.69;75.49;97983.06;10138947;29;20041;-69
2021/01/24 02:48:35;;;;;;;14.02;12.85;;;;;;;0.61;75.83;97978.97;10139777;29;20088;-69
2021/01/24 02:53:38;;;;;;;14.30;13.02;;;;;;;0.52;76.15;97976.63;10139882;29;20049;-68
2021/01/24 02:58:41;;;;;;;15.02;13.82;;;;;;;0.47;76.36;97958.63;10137936;29;20127;-68
2021/01/24 03:03:42;;;;;;;13.90;12.70;;;;;;;0.87;75.31;97955.03;10139189;29;20048;-67
2021/01/24 03:08:43;;;;;;;14.35;13.23;;;;;;;0.81;75.64;97950.03;10138971;29;20068;-69
2021/01/24 03:14:10;;;;;;;13.73;12.63;;;;;;;0.70;75.41;97958.91;10145337;29;20463;-68
2021/01/24 03:19:13;;;;;;;14.40;13.30;;;;;;;0.39;76.08;97953.66;10144149;29;20060;-68
2021/01/24 03:24:17;;;;;;;14.27;13.07;;;;;;;0.58;75.89;97951.47;10146308;29;20451;-68
2021/01/24 03:29:19;;;;;;;13.65;12.50;;;;;;;0.40;76.03;97945.03;10145666;29;20131;-69
2021/01/24 03:34:22;;;;;;;14.88;13.68;;;;;;;0.15;76.34;97941.34;10145448;29;20046;-67
2021/01/24 03:39:23;;;;;;;15.45;14.15;;;;;;;0.35;75.92;97939.09;10144415;29;20045;-67
2021/01/24 03:44:24;;;;;;;16.17;14.88;;;;;;;0.41;75.76;97941.56;10145189;29;20064;-67
2021/01/24 03:49:26;;;;;;;17.83;16.23;;;;;;;0.19;76.18;97933.47;10144270;29;20086;-68
2021/01/24 03:54:27;;;;;;;17.65;16.20;;;;;;;0.47;75.75;97927.63;10142119;29;20121;-67
2021/01/24 03:59:28;;;;;;;18.80;17.10;;;;;;;0.16;76.18;97935.28;10143848;29;20048;-67
2021/01/24 04:04:29;;;;;;;17.92;16.33;;;;;;;0.24;76.17;97931.63;10144068;29;20048;-66
2021/01/24 04:09:31;;;;;;;19.13;17.50;;;;;;;-0.06;76.43;97914.25;10143715;29;20045;-67
2021/01/24 04:14:32;;;;;;;19.08;17.27;;;;;;;-0.13;76.43;97916.16;10143480;29;20128;-68
2021/01/24 04:19:34;;;;;;;20.25;18.25;;;;;;;-0.31;76.45;97921.69;10143839;29;20418;-67
2021/01/24 04:24:35;;;;;;;19.10;17.30;;;;;;;-0.45;77.05;97916.00;10141241;29;20488;-67
2021/01/24 04:29:36;;;;;;;20.20;18.20;;;;;;;-0.26;76.57;97910.41;10143578;29;20052;-67
2021/01/24 04:34:38;;;;;;;19.50;17.80;;;;;;;-0.38;76.59;97913.25;10143093;29;20055;-67
2021/01/24 04:39:39;;;;;;;19.30;17.50;;;;;;;-0.56;77.15;97901.59;10142433;29;20124;-66
2021/01/24 04:44:42;;;;;;;18.88;17.05;;;;;;;-0.44;76.67;97894.44;10143728;29;20048;-65
2021/01/24 04:49:43;;;;;;;18.77;16.90;;;;;;;-0.41;76.13;97895.25;10141082;29;20140;-67
2021/01/24 04:54:44;;;;;;;20.02;18.13;;;;;;;-0.52;76.32;97905.81;10142056;29;20041;-67
2021/01/24 04:59:46;;;;;;;18.80;17.20;;;;;;;-0.64;76.48;97906.06;10142807;29;20472;-66
2021/01/24 05:04:47;;;;;;;19.67;17.67;;;;;;;-0.83;76.85;97904.75;10140619;29;20045;-66
2021/01/24 05:09:48;;;;;;;19.65;17.75;;;;;;;-0.76;76.82;97904.56;10140784;29;20056;-65
2021/01/24 05:14:50;;;;;;;19.08;17.33;;;;;;;-0.80;76.90;97899.50;10141083;29;20068;-66
2021/01/24 05:19:52;;;;;;;20.17;18.30;;;;;;;-0.82;77.27;97901.28;10141405;29;20092;-67
2021/01/24 05:24:53;;;;;;;19.85;17.95;;;;;;;-0.88;77.15;97896.28;10140874;29;20045;-67
2021/01/24 05:29:55;;;;;;;22.35;20.20;;;;;;;-0.80;77.16;97897.81;10141548;29;20063;-66
2021/01/24 05:34:57;;;;;;;19.15;17.35;;;;;;;-0.77;77.04;97902.03;10139381;29;20048;-66
2021/01/24 05:39:58;;;;;;;20.85;18.85;;;;;;;-0.76;76.74;97896.00;10139134;29;20052;-65
2021/01/24 05:44:59;;;;;;;20.50;18.60;;;;;;;-0.87;77.10;97897.97;10138367;29;20041;-65
2021/01/24 05:50:01;;;;;;;22.75;20.33;;;;;;;-0.97;77.12;97902.47;10138264;29;20402;-66
2021/01/24 05:55:02;;;;;;;21.60;19.42;;;;;;;-0.99;77.30;97895.63;10136956;29;20049;-66
2021/01/24 06:00:06;;;;;;;23.13;19.58;;;;;;;-1.13;77.64;97888.16;10138959;29;20130;-67
2021/01/24 06:05:08;;;;;;;22.92;20.13;;;;;;;-1.11;77.58;97897.53;10138128;29;20482;-67
2021/01/24 06:10:10;;;;;;;24.40;20.00;;;;;;;-0.83;77.39;97897.03;10138655;29;20044;-67
2021/01/24 06:15:14;;;;;;;23.88;20.13;;;;;;;-0.69;77.03;97904.47;10138326;29;20459;-66
2021/01/24 06:20:19;;;;;;;27.75;21.65;;;;;;;-0.69;77.67;97897.56;10138554;29;20056;-67
2021/01/24 06:25:33;;;;;;;34.15;22.55;;;;;;;-0.53;77.11;97898.97;10137623;29;20116;-66
2021/01/24 06:30:35;;;;;;;33.28;22.90;;;;;;;-0.41;76.86;97894.41;10137386;29;20083;-67
2021/01/24 06:35:43;;;;;;;24.30;20.20;;;;;;;-0.49;76.54;97899.72;10137998;29;20096;-67
2021/01/24 06:40:45;;;;;;;30.27;20.98;;;;;;;-0.48;76.78;97898.88;10136635;29;20125;-67
2021/01/24 06:45:46;;;;;;;27.63;21.80;;;;;;;-0.42;76.62;97901.28;10140496;29;20044;-65
2021/01/24 06:50:49;;;;;;;32.30;21.45;;;;;;;-0.24;76.58;97912.09;10145877;29;20130;-65
2021/01/24 06:55:59;;;;;;;28.55;21.38;;;;;;;-0.49;76.94;97910.03;10145101;29;20045;-66
2021/01/24 07:01:19;;;;;;;29.70;22.20;;;;;;;-0.52;77.04;97910.97;10143516;29;20060;-65
2021/01/24 07:06:30;;;;;;;33.05;23.13;;;;;;;-0.64;77.27;97915.53;10145507;29;20491;-65
2021/01/24 07:11:51;;;;;;;28.70;21.50;;;;;;;-0.50;76.69;97926.41;10144138;29;20048;-66
2021/01/24 07:16:53;;;;;;;37.90;22.25;;;;;;;-0.37;75.83;97925.28;10144146;29;20079;-67
2021/01/24 07:21:54;;;;;;;29.08;20.98;;;;;;;-0.44;76.17;97931.47;10146041;29;20060;-66
2021/01/24 07:26:56;;;;;;;33.45;22.88;;;;;;;-0.47;76.56;97938.41;10144592;29;20037;-67
2021/01/24 07:31:58;;;;;;;29.55;21.77;;;;;;;-0.56;76.93;97937.72;10144624;29;20056;-66
2021/01/24 07:36:59;;;;;;;33.58;20.80;;;;;;;-0.48;77.01;97940.16;10143983;29;20072;-66
2021/01/24 07:42:02;;;;;;;31.17;22.25;;;;;;;-0.37;76.82;97927.84;10142460;29;20079;-65
2021/01/24 07:47:11;;;;;;;22.90;19.92;;;;;;;0.08;75.86;97937.19;10143415;29;20059;-66
2021/01/24 07:52:13;;;;;;;26.50;20.13;;;;;;;-0.19;76.42;97928.34;10142634;29;20048;-67
2021/01/24 07:57:14;;;;;;;27.92;20.58;;;;;;;-0.28;76.55;97937.13;10141995;29;20037;-65
2021/01/24 08:02:16;;;;;;;21.15;18.55;;;;;;;0.32;75.44;97930.59;10142234;29;20088;-67
2021/01/24 08:07:18;;;;;;;20.02;17.95;;;;;;;0.39;74.91;97938.13;10141486;29;20136;-67
2021/01/24 08:12:19;;;;;;;20.85;18.30;;;;;;;0.44;73.99;97943.19;10141492;29;20127;-66
2021/01/24 08:17:22;;;;;;;20.98;18.80;;;;;;;0.24;74.53;97938.53;10142969;29;20045;-66
2021/01/24 08:22:24;;;;;;;20.83;18.02;;;;;;;0.41;73.09;97931.22;10141321;29;20143;-66
2021/01/24 08:27:27;;;;;;;20.25;18.15;;;;;;;0.34;73.54;97934.81;10141770;29;20072;-66
2021/01/24 08:32:31;;;;;;;17.77;16.05;;;;;;;0.44;73.27;97941.50;10141850;29;20427;-67
2021/01/24 08:37:32;;;;;;;19.33;17.35;;;;;;;0.62;72.81;97944.47;10141091;29;20384;-67
2021/01/24 08:42:49;;;;;;;19.23;17.30;;;;;;;0.50;73.21;97943.06;10139764;29;20049;-67
2021/01/24 08:48:01;;;;;;;17.03;15.33;;;;;;;0.65;72.23;97939.22;10123695;29;20183;-67
2021/01/24 08:53:05;;;;;;;17.60;15.80;;;;;;;0.56;72.50;97942.91;10141826;29;20040;-64
2021/01/24 08:58:22;;;;;;;18.83;17.00;;;;;;;0.42;73.29;97947.56;10139879;29;20048;-64
2021/01/24 09:03:24;;;;;;;17.33;15.63;;;;;;;0.68;72.47;97946.91;10141409;29;20075;-66
2021/01/24 09:08:28;;;;;;;17.88;16.17;;;;;;;0.84;71.36;97942.19;10140599;29;20072;-67
2021/01/24 09:13:29;;;;;;;16.90;15.40;;;;;;;0.67;72.49;97943.50;10138697;29;20124;-66
2021/01/24 09:18:30;;;;;;;19.42;17.48;;;;;;;0.67;73.29;97950.41;10140485;29;20045;-66
2021/01/24 09:23:32;;;;;;;19.80;17.80;;;;;;;1.11;70.91;97946.66;10139022;29;20072;-67
2021/01/24 09:28:34;;;;;;;18.75;17.00;;;;;;;0.97;71.44;97959.09;10141293;29;20045;-65
2021/01/24 09:39:03;;;;;;;19.90;17.90;;;;;;;0.79;72.92;97956.97;10097347;29;20472;-66
2021/01/24 09:44:05;;;;;;;20.48;18.40;;;;;;;1.15;71.07;97956.03;10099033;29;20084;-65
2021/01/24 09:49:06;;;;;;;20.83;18.65;;;;;;;1.27;70.71;97952.22;10097284;29;20081;-65
2021/01/24 09:54:08;;;;;;;20.15;18.25;;;;;;;1.17;71.50;97945.63;10097246;29;20077;-65
2021/01/24 09:59:09;;;;;;;23.77;18.52;;;;;;;1.31;71.03;97953.84;10097352;29;20044;-65
2021/01/24 10:04:11;;;;;;;20.10;17.65;;;;;;;1.17;71.48;97953.38;10111653;29;20060;-64
2021/01/24 10:09:12;;;;;;;20.42;18.50;;;;;;;1.17;72.18;97949.06;10097289;29;20574;-65
2021/01/24 10:14:13;;;;;;;18.35;16.58;;;;;;;1.21;71.75;97952.41;10097521;29;20076;-64
2021/01/24 10:19:14;;;;;;;18.40;16.80;;;;;;;1.15;72.47;97957.75;10097577;29;20475;-65
2021/01/24 10:24:15;;;;;;;18.25;16.60;;;;;;;1.17;72.70;97953.38;10095361;29;20097;-65
2021/01/24 10:29:17;;;;;;;20.60;18.42;;;;;;;1.12;73.20;97953.50;10097730;29;20097;-64
2021/01/24 10:34:18;;;;;;;19.95;17.85;;;;;;;1.13;73.39;97957.78;10097055;29;20123;-65
2021/01/24 10:39:19;;;;;;;21.27;19.25;;;;;;;1.06;73.68;97961.41;10096044;29;20418;-65
2021/01/24 10:44:20;;;;;;;23.10;20.85;;;;;;;1.13;73.73;97960.38;10097257;29;20128;-65
2021/01/24 10:49:21;;;;;;;21.45;19.23;;;;;;;1.10;73.72;97960.44;10096057;29;20049;-65
2021/01/24 10:54:24;;;;;;;23.27;20.88;;;;;;;0.99;74.27;97959.91;10096463;29;20049;-65
2021/01/24 10:59:25;;;;;;;22.77;20.52;;;;;;;1.05;74.01;97961.47;10095971;29;20116;-65
2021/01/24 11:04:26;;;;;;;24.88;22.30;;;;;;;1.09;74.16;97960.50;10095464;29;20063;-67
2021/01/24 11:09:28;;;;;;;25.00;22.60;;;;;;;0.99;74.61;97957.31;10095956;29;20091;-65
2021/01/24 11:14:29;;;;;;;27.75;24.00;;;;;;;0.97;74.86;97959.09;10096654;29;20041;-65
2021/01/24 11:19:30;;;;;;;31.45;24.65;;;;;;;1.00;74.91;97946.91;10096933;29;20079;-65
2021/01/24 11:24:32;;;;;;;23.45;21.02;;;;;;;1.07;74.54;97952.78;10097783;29;20093;-65
2021/01/24 11:29:34;;;;;;;26.45;23.02;;;;;;;1.11;74.49;97944.06;10095832;29;20060;-65
2021/01/24 11:34:36;;;;;;;27.92;22.85;;;;;;;1.35;73.90;97950.28;10101349;29;20051;-64
2021/01/24 11:39:37;;;;;;;26.05;23.35;;;;;;;1.48;73.46;97948.19;10102953;29;20049;-65
2021/01/24 11:44:39;;;;;;;27.02;23.65;;;;;;;1.29;74.06;97949.63;10104679;29;20072;-65
2021/01/24 11:49:40;;;;;;;21.98;19.77;;;;;;;1.34;73.73;97945.16;10102805;29;20048;-64
2021/01/24 11:54:41;;;;;;;21.77;18.67;;;;;;;1.10;74.75;97942.34;10102734;29;20049;-65
2021/01/24 11:59:42;;;;;;;29.00;20.48;;;;;;;1.07;74.22;97952.78;10101891;29;20049;-65
2021/01/24 12:04:43;;;;;;;21.50;19.10;;;;;;;0.88;74.88;97943.81;10101308;29;20052;-66
2021/01/24 12:09:47;;;;;;;22.00;19.65;;;;;;;0.82;75.44;97946.56;10103624;29;20085;-66
2021/01/24 12:14:48;;;;;;;20.25;18.27;;;;;;;1.07;74.57;97942.44;10103492;29;20079;-67
2021/01/24 12:19:53;;;;;;;20.98;17.95;;;;;;;1.16;74.51;97936.16;10102281;29;20049;-66
2021/01/24 12:24:54;;;;;;;20.20;18.17;;;;;;;0.98;74.76;97940.94;10103039;29;20049;-66
2021/01/24 12:29:55;;;;;;;21.60;17.63;;;;;;;1.17;74.79;97941.28;10102394;29;20045;-66
2021/01/24 12:34:56;;;;;;;19.35;17.38;;;;;;;1.08;75.31;97936.38;10102033;29;20063;-65
2021/01/24 12:39:57;;;;;;;18.35;16.75;;;;;;;1.31;74.86;97946.09;10098967;29;20128;-67
2021/01/24 12:44:59;;;;;;;17.35;15.65;;;;;;;1.37;74.95;97943.31;10099952;29;20045;-66
2021/01/24 12:50:00;;;;;;;18.38;16.50;;;;;;;1.08;76.02;97957.06;10101258;29;20057;-67
2021/01/24 12:55:01;;;;;;;17.35;15.85;;;;;;;1.35;75.70;97944.25;10101587;29;20069;-67
2021/01/24 13:00:05;;;;;;;17.27;14.63;;;;;;;1.34;75.50;97946.00;10101144;29;20049;-65
2021/01/24 13:05:09;;;;;;;16.92;15.40;;;;;;;1.37;75.40;97945.06;10100477;29;20049;-66
2021/01/24 13:10:13;;;;;;;15.75;14.25;;;;;;;1.53;75.25;97943.72;10100418;29;20137;-66
2021/01/24 13:15:14;;;;;;;15.40;14.00;;;;;;;1.60;74.91;97947.84;10099976;29;20074;-67
2021/01/24 13:20:16;;;;;;;15.27;13.95;;;;;;;1.53;75.19;97941.16;10099859;29;20045;-66
2021/01/24 13:25:17;;;;;;;15.50;14.00;;;;;;;1.37;75.68;97945.91;10099263;29;20123;-66
2021/01/24 13:30:18;;;;;;;16.83;15.30;;;;;;;1.53;75.69;97948.91;10099377;29;20049;-66
2021/01/24 13:35:19;;;;;;;16.38;14.85;;;;;;;1.64;75.42;97948.59;10099214;29;20393;-66
2021/01/24 13:40:21;;;;;;;17.05;15.35;;;;;;;1.51;75.90;97953.31;10098700;29;20101;-66
2021/01/24 13:45:22;;;;;;;16.63;15.13;;;;;;;1.49;76.05;97953.31;10098986;29;20045;-67
2021/01/24 13:50:26;;;;;;;17.45;15.95;;;;;;;1.46;76.17;97952.56;10099975;29;20053;-67
2021/01/24 13:55:27;;;;;;;17.27;15.88;;;;;;;1.43;76.06;97956.09;10098756;29;20453;-67
2021/01/24 14:00:28;;;;;;;16.63;15.23;;;;;;;1.46;76.33;97955.16;10098746;29;20085;-67
2021/01/24 14:05:29;;;;;;;17.02;15.60;;;;;;;1.47;76.35;97965.47;10098143;29;20049;-66
2021/01/24 14:10:31;;;;;;;18.20;16.58;;;;;;;1.52;76.19;97966.19;10098417;29;20045;-66
2021/01/24 14:15:32;;;;;;;19.42;17.80;;;;;;;1.43;76.44;97968.19;10098245;29;20120;-67
2021/01/24 14:20:34;;;;;;;17.48;15.98;;;;;;;1.35;76.47;97970.16;10097447;29;20064;-65
2021/01/24 14:25:36;;;;;;;13.85;12.70;;;;;;;1.38;76.21;97972.66;10097726;29;20551;-67
2021/01/24 14:30:37;;;;;;;10.85;9.88;;;;;;;1.59;75.79;97981.53;10097108;29;20125;-66
2021/01/24 14:35:38;;;;;;;6.93;5.57;;;;;;;1.93;73.59;97986.59;10097987;29;20048;-65
2021/01/24 14:40:40;;;;;;;2.63;2.38;;;;;;;1.82;72.63;97991.25;10096983;29;20124;-65
2021/01/24 14:45:41;;;;;;;2.80;2.53;;;;;;;1.93;72.25;97991.78;10096242;29;20041;-65
2021/01/24 14:50:47;;;;;;;2.08;1.92;;;;;;;1.91;71.89;98004.78;10096616;29;20049;-66
2021/01/24 14:55:53;;;;;;;1.95;1.85;;;;;;;1.79;72.34;97996.53;10097709;29;20041;-64
2021/01/24 15:00:54;;;;;;;2.35;2.15;;;;;;;1.60;73.00;98004.81;10096876;29;20416;-66
2021/01/24 15:05:55;;;;;;;2.75;2.55;;;;;;;1.20;74.62;97999.91;10098052;29;20615;-65
2021/01/24 15:10:56;;;;;;;2.67;2.47;;;;;;;1.47;73.50;98006.91;10103929;29;20371;-66
2021/01/24 15:15:58;;;;;;;2.97;2.78;;;;;;;1.32;74.18;98009.91;10103283;29;20128;-65
2021/01/24 15:20:59;;;;;;;2.40;2.20;;;;;;;1.37;73.48;98012.34;10103601;29;20444;-65
2021/01/24 15:26:04;;;;;;;5.20;4.80;;;;;;;1.18;74.24;98009.41;10103160;29;20116;-65
2021/01/24 15:31:06;;;;;;;6.57;6.00;;;;;;;1.03;74.95;98013.28;10103404;29;20467;-65
2021/01/24 15:36:07;;;;;;;3.10;2.80;;;;;;;1.07;75.02;98020.06;10130869;23;20045;-70
2021/01/24 15:41:09;;;;;;;3.20;2.90;;;;;;;1.05;74.50;98026.16;10142142;29;20056;-70
2021/01/24 15:46:10;;;;;;;6.13;2.63;;;;;;;1.08;73.96;98026.09;10142678;29;20480;-71
2021/01/24 15:51:11;;;;;;;3.58;3.28;;;;;;;1.03;74.41;98033.97;10143438;29;20056;-71
2021/01/24 15:56:13;;;;;;;3.53;3.22;;;;;;;0.81;74.76;98044.00;10142462;29;20040;-71
2021/01/24 16:01:14;;;;;;;3.92;3.63;;;;;;;0.89;75.07;98042.06;10140890;29;20079;-70
2021/01/24 16:06:16;;;;;;;3.38;3.17;;;;;;;1.23;73.80;98043.78;10142215;29;20104;-70
2021/01/24 16:11:18;;;;;;;3.10;2.80;;;;;;;1.28;73.56;98054.88;10142455;29;20100;-70
2021/01/24 16:16:19;;;;;;;3.13;2.83;;;;;;;1.19;73.54;98055.09;10142348;29;20059;-70
2021/01/24 16:21:21;;;;;;;3.40;3.10;;;;;;;1.17;74.36;98056.91;10142215;29;20152;-70
2021/01/24 16:26:22;;;;;;;3.80;3.50;;;;;;;0.77;75.32;98059.63;10141952;29;20389;-70
2021/01/24 16:31:24;;;;;;;4.07;3.75;;;;;;;0.82;75.71;98058.63;10141434;29;20049;-70
2021/01/24 16:36:25;;;;;;;4.07;3.75;;;;;;;0.88;75.66;98062.78;10141049;29;20068;-68
2021/01/24 16:41:26;;;;;;;3.45;3.10;;;;;;;1.16;74.53;98069.00;10141040;29;20040;-68
2021/01/24 16:46:28;;;;;;;3.80;3.33;;;;;;;1.05;74.65;98060.63;10140242;29;20068;-68
2021/01/24 16:51:29;;;;;;;3.75;3.45;;;;;;;0.84;75.53;98071.50;10141705;29;20108;-68
2021/01/24 16:56:30;;;;;;;4.57;4.18;;;;;;;1.01;75.50;98077.13;10142052;29;20065;-67
2021/01/24 17:01:31;;;;;;;4.03;3.72;;;;;;;0.95;75.40;98075.53;10141224;29;20075;-68
2021/01/24 17:06:34;;;;;;;4.55;4.15;;;;;;;0.97;75.35;98083.25;10138130;29;20044;-68
2021/01/24 17:11:35;;;;;;;3.83;3.28;;;;;;;1.10;75.08;98084.66;10139334;29;20460;-68
2021/01/24 17:16:36;;;;;;;4.15;3.85;;;;;;;1.16;74.74;98087.09;10139923;29;20523;-68
2021/01/24 17:21:38;;;;;;;5.10;4.60;;;;;;;0.97;75.01;98089.31;10141641;29;20060;-69
2021/01/24 17:26:39;;;;;;;4.35;4.05;;;;;;;1.15;74.47;98093.19;10140235;29;20071;-69
2021/01/24 17:31:41;;;;;;;4.75;4.45;;;;;;;0.97;75.09;98093.59;10139608;29;20578;-67
2021/01/24 17:36:43;;;;;;;4.80;4.50;;;;;;;1.10;74.80;98101.91;10138345;29;20135;-69
2021/01/24 17:41:44;;;;;;;5.20;4.82;;;;;;;1.17;74.54;98101.75;10137897;29;20063;-68
2021/01/24 17:46:45;;;;;;;5.45;5.05;;;;;;;1.12;75.02;98106.19;10139138;29;20040;-67
2021/01/24 17:51:47;;;;;;;7.05;6.45;;;;;;;0.99;75.53;98115.97;10139225;29;20495;-68
2021/01/24 17:56:48;;;;;;;7.05;6.55;;;;;;;1.00;75.30;98117.66;10138496;29;20041;-67
2021/01/24 18:01:49;;;;;;;7.82;7.22;;;;;;;0.90;75.49;98126.53;10138683;29;20048;-68
2021/01/24 18:06:51;;;;;;;9.70;9.00;;;;;;;0.81;75.70;98137.09;10138309;29;20127;-70
2021/01/24 18:11:52;;;;;;;8.85;8.15;;;;;;;0.73;75.93;98149.34;10138324;29;20060;-69
2021/01/24 18:16:53;;;;;;;10.10;9.40;;;;;;;0.80;76.01;98147.47;10137492;29;20096;-68
2021/01/24 18:21:54;;;;;;;9.70;8.90;;;;;;;0.77;75.92;98152.72;10136818;29;20488;-68
2021/01/24 18:26:55;;;;;;;9.30;8.63;;;;;;;0.63;76.38;98160.78;10137665;29;20041;-67
2021/01/24 18:31:57;;;;;;;11.23;10.43;;;;;;;0.47;76.89;98168.00;10137604;29;20499;-68
2021/01/24 18:37:00;;;;;;;12.35;11.45;;;;;;;0.60;76.74;98181.53;10137338;29;20518;-68
2021/01/24 18:42:02;;;;;;;12.18;11.18;;;;;;;0.57;76.94;98185.03;10140769;29;20072;-67
2021/01/24 18:47:03;;;;;;;12.38;11.48;;;;;;;0.65;76.51;98201.22;10146770;29;20479;-68
2021/01/24 18:52:05;;;;;;;12.00;11.10;;;;;;;0.70;76.23;98201.97;10148530;29;20051;-68
2021/01/24 18:57:06;;;;;;;12.57;11.57;;;;;;;0.44;76.87;98215.47;10147289;29;20048;-70
2021/01/24 19:02:08;;;;;;;14.50;13.07;;;;;;;0.42;77.24;98216.38;10147488;29;20057;-70
2021/01/24 19:07:13;;;;;;;15.40;14.20;;;;;;;0.48;77.30;98224.84;10148361;29;20044;-68
2021/01/24 19:12:15;;;;;;;13.73;12.52;;;;;;;0.44;77.35;98232.69;10147181;29;20063;-70
2021/01/24 19:17:17;;;;;;;14.65;13.35;;;;;;;0.69;76.69;98240.81;10147883;29;20041;-69
2021/01/24 19:22:18;;;;;;;14.68;13.43;;;;;;;0.63;76.62;98238.38;10148584;29;20120;-69
2021/01/24 19:27:19;;;;;;;15.68;14.30;;;;;;;0.57;76.88;98244.50;10147865;29;20037;-69
2021/01/24 19:32:21;;;;;;;14.18;13.05;;;;;;;0.51;76.95;98247.22;10146316;29;20056;-68
2021/01/24 19:37:22;;;;;;;13.98;12.88;;;;;;;0.71;76.30;98254.56;10146145;29;20051;-68
2021/01/24 19:42:24;;;;;;;13.23;12.13;;;;;;;0.62;76.33;98259.91;10146019;29;20096;-69
2021/01/24 19:47:26;;;;;;;10.95;10.05;;;;;;;0.69;76.37;98261.50;10146723;29;20062;-70
2021/01/24 19:52:28;;;;;;;11.80;10.90;;;;;;;0.70;76.91;98276.13;10147152;29;20059;-70
2021/01/24 19:57:29;;;;;;;13.82;12.73;;;;;;;0.42;77.51;98273.25;10147529;29;20047;-68
2021/01/24 20:02:30;;;;;;;12.98;11.90;;;;;;;0.49;76.87;98280.84;10147034;29;20048;-68
2021/01/24 20:07:51;;;;;;;12.90;11.80;;;;;;;0.47;76.81;98284.34;10145769;29;20072;-68
2021/01/24 20:12:53;;;;;;;11.15;10.25;;;;;;;0.50;76.38;98294.63;10144487;29;20053;-69
2021/01/24 20:17:54;;;;;;;11.32;10.43;;;;;;;0.35;77.03;98300.91;10145381;29;20053;-68
2021/01/24 20:22:56;;;;;;;13.00;11.90;;;;;;;0.59;76.31;98314.28;10144071;29;20048;-68
2021/01/24 20:27:57;;;;;;;14.77;13.57;;;;;;;0.50;76.64;98318.75;10143922;29;20108;-70
2021/01/24 20:33:00;;;;;;;13.13;12.02;;;;;;;0.69;76.46;98316.66;10144053;29;20055;-68
2021/01/24 20:38:01;;;;;;;16.83;15.32;;;;;;;0.57;76.31;98326.38;10143607;29;20115;-70
2021/01/24 20:43:03;;;;;;;19.15;17.27;;;;;;;0.65;76.54;98329.66;10143870;29;20087;-69
2021/01/24 20:48:05;;;;;;;21.33;18.48;;;;;;;0.45;76.89;98336.09;10140730;29;20047;-69
2021/01/24 20:53:06;;;;;;;20.55;18.55;;;;;;;0.67;76.46;98338.28;10141339;29;20083;-68
2021/01/24 20:58:08;;;;;;;21.55;19.45;;;;;;;0.58;76.44;98344.47;10142497;29;20048;-69
2021/01/24 21:03:09;;;;;;;21.80;19.45;;;;;;;0.53;76.95;98343.66;10140411;29;20056;-68
2021/01/24 21:08:10;;;;;;;26.75;21.98;;;;;;;0.65;76.33;98352.94;10140228;29;20127;-68
2021/01/24 21:13:12;;;;;;;27.35;21.73;;;;;;;0.66;76.38;98354.66;10141451;29;20160;-68
2021/01/24 21:18:13;;;;;;;26.60;20.52;;;;;;;0.62;76.24;98353.88;10140497;29;20080;-68
2021/01/24 21:23:14;;;;;;;34.30;23.88;;;;;;;0.48;76.91;98367.03;10142911;29;20044;-68
2021/01/24 21:28:16;;;;;;;36.88;23.70;;;;;;;0.55;76.69;98375.53;10140984;29;20044;-68
2021/01/24 21:33:17;;;;;;;55.78;27.80;;;;;;;0.43;77.28;98384.34;10141244;29;20056;-68
2021/01/24 21:38:18;;;;;;;39.90;24.88;;;;;;;0.70;76.23;98374.41;10153216;23;20524;-67
2021/01/24 21:43:20;;;;;;;52.05;27.15;;;;;;;0.47;76.63;98380.00;10138287;29;20044;-67
2021/01/24 21:48:21;;;;;;;39.58;25.27;;;;;;;0.60;76.06;98376.31;10137683;29;20045;-67
2021/01/24 21:53:22;;;;;;;40.85;25.85;;;;;;;0.76;75.52;98382.06;10137903;29;20049;-67
2021/01/24 21:58:24;;;;;;;48.15;25.33;;;;;;;0.72;75.47;98390.75;10137065;29;20052;-67
2021/01/24 22:03:25;;;;;;;36.97;23.58;;;;;;;0.84;75.17;98392.22;10137179;29;20048;-67
2021/01/24 22:08:26;;;;;;;35.58;24.17;;;;;;;0.86;74.92;98393.94;10136998;29;20040;-66
2021/01/24 22:13:28;;;;;;;39.22;22.77;;;;;;;0.81;75.08;98394.91;10136759;29;20571;-67
2021/01/24 22:18:29;;;;;;;34.05;24.38;;;;;;;0.68;74.83;98399.44;10136508;29;20045;-67
2021/01/24 22:23:33;;;;;;;26.95;21.52;;;;;;;0.69;75.31;98393.38;10136792;29;20056;-67
2021/01/24 22:28:35;;;;;;;24.23;20.45;;;;;;;0.58;75.38;98393.59;10137495;29;20044;-67
2021/01/24 22:33:36;;;;;;;22.90;19.25;;;;;;;0.75;74.90;98401.03;10136172;29;20052;-67
2021/01/24 22:38:37;;;;;;;21.73;18.17;;;;;;;0.84;74.20;98398.28;10136164;29;20048;-67
2021/01/24 22:43:38;;;;;;;21.27;17.25;;;;;;;0.84;74.45;98398.28;10136569;29;20049;-67
2021/01/24 22:48:39;;;;;;;18.55;16.75;;;;;;;0.87;74.21;98395.63;10135829;29;20041;-67
2021/01/24 22:53:41;;;;;;;19.30;17.55;;;;;;;0.86;74.47;98398.25;10119401;29;20108;-67
2021/01/24 22:58:42;;;;;;;18.35;16.65;;;;;;;1.01;73.27;98403.97;10136697;29;20052;-66
2021/01/24 23:03:43;;;;;;;19.33;17.63;;;;;;;0.91;73.94;98401.59;10136288;29;20052;-66
2021/01/24 23:08:45;;;;;;;20.02;18.05;;;;;;;0.91;73.26;98410.22;10136213;29;20044;-66
2021/01/24 23:13:53;;;;;;;21.05;18.90;;;;;;;0.78;74.18;98411.31;10136045;29;20069;-66
2021/01/24 23:18:54;;;;;;;21.83;19.67;;;;;;;0.72;74.64;98414.03;10136180;29;20384;-66